Time;durP1;ratioP1;P1;durP2;ratioP2;P2;SDS_P1;SDS_P2;PMS_P1;PMS_P2;Temp;Humidity;BMP_temperature;BMP_pressure;BME280_temperature;BME280_humidity;BME280_pressure;Samples;Min_cycle;Max_cycle;Signal;HPM_P1;HPM_P2
2022/05/12 00:00:12;;;;;;;22.83;10.37;;;;;;;10.98;100.00;100176.00;4987126;28;20053;-74
2022/05/12 00:02:37;;;;;;;23.77;9.98;;;;;;;11.05;100.00;100175.25;4989140;28;20037;-74
2022/05/12 00:05:04;;;;;;;18.23;7.90;;;;;;;11.08;100.00;100158.91;4989237;28;20030;-74
2022/05/12 00:07:30;;;;;;;23.35;9.77;;;;;;;11.11;100.00;100154.00;4989266;28;20034;-74
2022/05/12 00:09:55;;;;;;;26.20;9.87;;;;;;;11.09;100.00;100133.81;4987509;28;20026;-75
2022/05/12 00:12:22;;;;;;;30.63;10.98;;;;;;;11.11;100.00;100139.81;4988907;28;20038;-74
2022/05/12 00:14:49;;;;;;;22.05;9.65;;;;;;;11.14;100.00;100142.13;4988964;28;20042;-73
2022/05/12 00:17:14;;;;;;;18.75;8.30;;;;;;;11.19;100.00;100150.41;4987922;28;20396;-74
2022/05/12 00:19:39;;;;;;;25.20;8.40;;;;;;;11.20;100.00;100144.91;4987489;28;20072;-73
2022/05/12 00:22:05;;;;;;;20.20;8.63;;;;;;;11.24;100.00;100144.53;4988595;28;20034;-74
2022/05/12 00:24:30;;;;;;;17.30;8.47;;;;;;;11.23;100.00;100135.69;4987804;28;20499;-74
2022/05/12 00:26:56;;;;;;;22.38;9.25;;;;;;;11.31;100.00;100134.81;4987719;28;20030;-74
2022/05/12 00:29:21;;;;;;;21.05;8.30;;;;;;;11.28;100.00;100135.97;4987089;28;20057;-74
2022/05/12 00:31:48;;;;;;;29.47;9.20;;;;;;;11.30;100.00;100141.97;4988367;28;20400;-74
2022/05/12 00:34:16;;;;;;;27.83;9.02;;;;;;;11.30;100.00;100147.31;4988867;28;20109;-74
2022/05/12 00:36:42;;;;;;;17.30;8.90;;;;;;;11.36;100.00;100140.44;4988585;28;20034;-74
2022/05/12 00:39:07;;;;;;;22.23;8.07;;;;;;;11.36;100.00;100130.56;4987370;28;20467;-74
2022/05/12 00:41:33;;;;;;;22.70;8.63;;;;;;;11.33;100.00;100130.09;4987126;28;20046;-74
2022/05/12 00:44:02;;;;;;;16.00;8.10;;;;;;;11.32;100.00;100112.41;4988632;28;20117;-74
2022/05/12 00:46:35;;;;;;;24.75;8.90;;;;;;;11.34;100.00;100103.19;4969660;28;20462;-74
2022/05/12 00:49:06;;;;;;;18.90;7.57;;;;;;;11.37;100.00;100107.34;4988336;28;20052;-75
2022/05/12 00:51:37;;;;;;;21.73;8.35;;;;;;;11.40;100.00;100109.63;4988251;28;20117;-74
2022/05/12 00:54:06;;;;;;;23.58;8.90;;;;;;;11.39;100.00;100103.47;4988518;28;20052;-75
2022/05/12 00:56:34;;;;;;;22.73;7.30;;;;;;;11.42;100.00;100096.91;4988388;28;20509;-74
2022/05/12 00:59:03;;;;;;;25.92;7.93;;;;;;;11.41;100.00;100106.78;4987481;28;20030;-74
2022/05/12 01:01:29;;;;;;;19.83;8.63;;;;;;;11.45;100.00;100095.72;4970445;28;20503;-75
2022/05/12 01:03:58;;;;;;;27.97;8.03;;;;;;;11.43;100.00;100101.28;4987176;28;20100;-74
2022/05/12 01:06:24;;;;;;;19.02;8.60;;;;;;;11.41;100.00;100105.97;4985948;28;20080;-74
2022/05/12 01:08:49;;;;;;;19.80;8.30;;;;;;;11.44;100.00;100120.81;4986660;28;20042;-74
2022/05/12 01:11:17;;;;;;;27.60;10.10;;;;;;;11.42;100.00;100123.66;4986406;28;20049;-73
2022/05/12 01:13:48;;;;;;;23.80;10.38;;;;;;;11.45;100.00;100141.16;4987396;28;20035;-73
2022/05/12 01:16:45;;;;;;;18.70;8.25;;;;;;;11.46;100.00;100130.28;4984272;28;20402;-74
2022/05/12 01:19:14;;;;;;;20.83;8.02;;;;;;;11.48;100.00;100130.94;4974763;28;20046;-73
2022/05/12 01:21:41;;;;;;;22.70;8.85;;;;;;;11.47;100.00;100126.63;4987337;28;20030;-74
2022/05/12 01:24:06;;;;;;;24.88;8.43;;;;;;;11.52;100.00;100134.06;4982841;28;20117;-74
2022/05/12 01:26:33;;;;;;;24.43;9.13;;;;;;;11.49;100.00;100129.09;4987758;28;20080;-74
2022/05/12 01:28:59;;;;;;;29.25;9.23;;;;;;;11.51;100.00;100121.72;4987153;28;20139;-74
2022/05/12 01:31:25;;;;;;;;;;;;;;;11.51;100.00;100121.72;4984689;28;20030;-74
2022/05/12 01:33:51;;;;;;;;;;;;;;;11.55;100.00;100126.53;4986631;28;19917;-74
2022/05/12 01:36:20;;;;;;;19.95;8.45;;;;;;;11.58;100.00;100111.94;4986309;28;19918;-74
2022/05/12 01:38:47;;;;;;;22.17;9.75;;;;;;;11.56;100.00;100108.63;4985994;28;20049;-74
2022/05/12 01:41:12;;;;;;;;;;;;;;;11.55;100.00;100102.47;4987626;28;20026;-74
2022/05/12 01:43:38;;;;;;;;;;;;;;;11.56;100.00;100103.28;4986715;28;19918;-74
2022/05/12 01:46:03;;;;;;;19.43;9.93;;;;;;;11.56;100.00;100113.97;4987557;28;19910;-74
2022/05/12 01:48:28;;;;;;;32.60;10.43;;;;;;;11.58;100.00;100160.91;4985814;28;20044;-74
2022/05/12 01:50:55;;;;;;;45.73;13.87;;;;;;;11.54;100.00;100191.72;4986992;28;20038;-74
2022/05/12 01:53:20;;;;;;;18.55;9.38;;;;;;;11.41;100.00;100192.31;4973555;28;20065;-73
2022/05/12 01:55:48;;;;;;;13.93;7.90;;;;;;;11.32;100.00;100205.94;4985163;28;20391;-73
2022/05/12 01:58:14;;;;;;;19.25;7.88;;;;;;;11.26;100.00;100199.50;4984694;28;20039;-74
2022/05/12 02:00:40;;;;;;;10.65;7.45;;;;;;;11.23;100.00;100229.22;4986785;28;20791;-73
2022/05/12 02:03:05;;;;;;;13.37;6.57;;;;;;;11.16;100.00;100214.91;4986685;28;20041;-74
2022/05/12 02:05:33;;;;;;;12.67;6.53;;;;;;;11.18;100.00;100226.25;4987129;28;20551;-74
2022/05/12 02:07:59;;;;;;;8.25;4.60;;;;;;;11.15;100.00;100232.78;4985524;28;20395;-74
2022/05/12 02:10:30;;;;;;;13.23;5.38;;;;;;;11.16;100.00;100244.31;4986752;28;20026;-73
2022/05/12 02:12:56;;;;;;;9.05;5.25;;;;;;;11.16;100.00;100263.00;4984358;28;20046;-74
2022/05/12 02:15:22;;;;;;;10.90;5.53;;;;;;;11.13;100.00;100260.69;4969078;28;20030;-73
2022/05/12 02:17:49;;;;;;;;;;;;;;;11.05;100.00;100266.09;4987159;28;20042;-73
2022/05/12 02:20:16;;;;;;;12.13;5.47;;;;;;;11.10;100.00;100285.94;4985496;28;19917;-74
2022/05/12 02:22:41;;;;;;;8.13;4.90;;;;;;;11.10;100.00;100306.47;4983617;28;20893;-74
2022/05/12 02:25:07;;;;;;;13.07;5.50;;;;;;;11.13;100.00;100322.16;4984913;28;20022;-74
2022/05/12 02:27:33;;;;;;;9.13;3.95;;;;;;;10.96;100.00;100327.59;4984357;28;20033;-73
2022/05/12 02:29:58;;;;;;;4.23;2.50;;;;;;;10.84;100.00;100338.81;4985106;28;20375;-73
2022/05/12 02:32:27;;;;;;;3.00;1.57;;;;;;;10.64;100.00;100349.09;4969016;28;20288;-74
2022/05/12 02:34:52;;;;;;;2.80;1.25;;;;;;;10.61;100.00;100357.47;4986587;28;20077;-74
2022/05/12 02:37:17;;;;;;;3.23;1.10;;;;;;;10.28;100.00;100328.16;4986322;28;20046;-74
2022/05/12 02:39:43;;;;;;;1.57;0.70;;;;;;;10.20;100.00;100339.66;4986503;28;20038;-73
2022/05/12 02:42:09;;;;;;;1.10;1.00;;;;;;;10.17;100.00;100336.53;4984760;28;20045;-74
2022/05/12 02:44:36;;;;;;;1.42;0.80;;;;;;;9.98;100.00;100345.72;4986453;28;20129;-74
2022/05/12 02:47:03;;;;;;;2.47;1.02;;;;;;;9.98;100.00;100341.22;4986430;28;20030;-74
2022/05/12 02:49:29;;;;;;;1.05;0.95;;;;;;;10.01;100.00;100351.53;4985172;28;20101;-73
2022/05/12 02:51:54;;;;;;;2.22;1.17;;;;;;;9.93;100.00;100354.22;4984883;28;20038;-73
2022/05/12 02:54:20;;;;;;;2.83;1.17;;;;;;;9.89;100.00;100360.88;4984752;28;20026;-73
2022/05/12 02:56:46;;;;;;;2.27;1.20;;;;;;;9.78;100.00;100353.22;4984140;28;20034;-73
2022/05/12 02:59:12;;;;;;;1.80;1.17;;;;;;;9.61;100.00;100366.53;4968834;28;20033;-73
2022/05/12 03:01:37;;;;;;;2.50;1.15;;;;;;;9.64;100.00;100363.53;4984766;28;20038;-73
2022/05/12 03:04:03;;;;;;;1.73;1.37;;;;;;;9.58;100.00;100369.53;4983234;28;20101;-73
2022/05/12 03:06:29;;;;;;;1.52;1.23;;;;;;;9.53;100.00;100379.88;4985129;28;20062;-73
2022/05/12 03:08:56;;;;;;;3.05;1.60;;;;;;;9.58;100.00;100396.19;4983713;28;20073;-73
2022/05/12 03:11:22;;;;;;;4.45;2.08;;;;;;;9.55;100.00;100409.00;4984259;28;20096;-73
2022/05/12 03:13:50;;;;;;;5.80;2.05;;;;;;;9.44;100.00;100420.81;4983110;28;20031;-73
2022/05/12 03:16:18;;;;;;;4.07;2.05;;;;;;;9.47;100.00;100420.50;4984977;28;20049;-73
2022/05/12 03:18:46;;;;;;;3.75;2.45;;;;;;;9.42;100.00;100436.13;4982219;28;20126;-73
2022/05/12 03:21:13;;;;;;;4.05;2.53;;;;;;;9.39;100.00;100447.09;4983098;28;20041;-73
2022/05/12 03:23:40;;;;;;;5.80;2.55;;;;;;;9.35;100.00;100456.44;4982171;28;20491;-73
2022/05/12 03:26:06;;;;;;;4.20;2.30;;;;;;;9.29;100.00;100466.75;4983193;28;20033;-73
2022/05/12 03:28:31;;;;;;;4.03;2.63;;;;;;;9.33;100.00;100483.22;4982818;28;20460;-73
2022/05/12 03:30:57;;;;;;;6.63;2.67;;;;;;;9.30;100.00;100484.38;4982307;28;20045;-73
2022/05/12 03:33:22;;;;;;;4.23;2.50;;;;;;;9.27;100.00;100490.03;4984173;28;20049;-73
2022/05/12 03:35:49;;;;;;;3.83;2.63;;;;;;;9.19;100.00;100490.00;4982224;28;20126;-73
2022/05/12 03:38:15;;;;;;;4.60;2.33;;;;;;;9.21;100.00;100506.66;4984446;28;20022;-74
2022/05/12 03:40:40;;;;;;;6.13;2.47;;;;;;;9.22;100.00;100518.97;4981935;28;20053;-72
2022/05/12 03:43:05;;;;;;;4.10;2.60;;;;;;;9.24;100.00;100524.16;4983137;28;20026;-73
2022/05/12 03:45:33;;;;;;;3.63;2.60;;;;;;;9.24;100.00;100538.28;4984009;28;20037;-73
2022/05/12 03:47:59;;;;;;;11.68;3.47;;;;;;;9.18;100.00;100541.59;4999253;28;20457;-73
2022/05/12 03:50:27;;;;;;;9.57;4.07;;;;;;;9.19;100.00;100542.44;4983682;28;20049;-73
2022/05/12 03:52:54;;;;;;;13.70;4.13;;;;;;;9.17;100.00;100555.91;4982634;28;20469;-73
2022/05/12 03:55:23;;;;;;;7.18;3.92;;;;;;;9.10;100.00;100560.19;4985549;28;20517;-73
2022/05/12 03:57:53;;;;;;;7.25;3.70;;;;;;;9.19;100.00;100577.91;4981752;28;20027;-73
2022/05/12 04:00:24;;;;;;;7.95;3.75;;;;;;;9.11;100.00;100580.53;4983898;28;20031;-73
2022/05/12 04:02:50;;;;;;;8.25;4.18;;;;;;;9.12;100.00;100582.19;4983694;28;20432;-73
2022/05/12 04:05:18;;;;;;;7.32;3.97;;;;;;;9.16;100.00;100583.53;4983789;28;20391;-74
2022/05/12 04:07:44;;;;;;;6.40;4.45;;;;;;;9.27;100.00;100599.28;4980663;28;20362;-73
2022/05/12 04:10:12;;;;;;;10.38;4.80;;;;;;;9.31;100.00;100610.44;4984169;28;20022;-74
2022/05/12 04:12:37;;;;;;;8.52;5.13;;;;;;;9.28;100.00;100622.25;4983583;28;20034;-73
2022/05/12 04:15:04;;;;;;;8.40;4.55;;;;;;;9.34;100.00;100625.25;4984056;28;20029;-73
2022/05/12 04:17:29;;;;;;;12.07;5.30;;;;;;;9.38;100.00;100634.63;4981538;28;20596;-73
2022/05/12 04:19:54;;;;;;;8.50;4.30;;;;;;;9.47;100.00;100655.81;4964946;28;20117;-74
2022/05/12 04:22:20;;;;;;;12.37;4.97;;;;;;;9.49;100.00;100656.50;4967446;28;20069;-74
2022/05/12 04:24:45;;;;;;;9.43;4.97;;;;;;;9.48;100.00;100673.50;4981294;28;20050;-74
2022/05/12 04:27:12;;;;;;;14.00;4.25;;;;;;;9.52;100.00;100682.84;4982854;28;20542;-74
2022/05/12 04:29:44;;;;;;;;;;;;;;;9.58;100.00;100692.03;4983842;28;20149;-73
2022/05/12 04:32:11;;;;;;;11.07;5.10;;;;;;;9.63;100.00;100695.06;4983382;28;20068;-73
2022/05/12 04:37:29;;;;;;;10.88;4.50;;;;;;;9.58;100.00;100689.38;4983728;28;20346;-72
2022/05/12 04:39:54;;;;;;;16.00;5.97;;;;;;;9.60;100.00;100698.06;4982530;28;20125;-72
2022/05/12 04:42:20;;;;;;;17.92;5.70;;;;;;;9.53;100.00;100689.03;4982198;28;20128;-73
2022/05/12 04:44:45;;;;;;;9.50;4.90;;;;;;;9.61;100.00;100683.72;4980931;28;20480;-73
2022/05/12 04:47:10;;;;;;;13.07;4.80;;;;;;;9.63;100.00;100681.75;4983518;28;20054;-73
2022/05/12 04:49:36;;;;;;;15.53;4.60;;;;;;;9.79;100.00;100674.84;4980745;28;20088;-73
2022/05/12 04:52:02;;;;;;;9.90;4.73;;;;;;;9.80;100.00;100663.16;4968106;28;20464;-72
2022/05/12 04:54:28;;;;;;;13.27;4.30;;;;;;;9.82;100.00;100648.69;4986106;28;20040;-72
2022/05/12 04:56:54;;;;;;;;;;;;;;;9.91;100.00;100657.56;4987991;28;20031;-72
2022/05/12 04:59:19;;;;;;;;;;;;;;;9.99;100.00;100665.56;4984756;28;19924;-72
2022/05/12 05:01:44;;;;;;;13.67;4.77;;;;;;;10.17;100.00;100657.47;4985971;28;19953;-74
2022/05/12 05:04:10;;;;;;;18.50;6.07;;;;;;;10.19;100.00;100652.00;4987522;28;20030;-73
2022/05/12 05:06:36;;;;;;;12.00;4.30;;;;;;;10.18;100.00;100661.81;4987054;28;20034;-72
2022/05/12 05:09:02;;;;;;;8.98;4.38;;;;;;;10.15;100.00;100654.97;4987274;28;20130;-73
2022/05/12 05:11:27;;;;;;;14.98;5.00;;;;;;;10.32;100.00;100655.03;4987462;28;20041;-73
2022/05/12 05:13:53;;;;;;;13.55;6.35;;;;;;;10.47;100.00;100669.44;4986542;28;20030;-72
2022/05/12 05:16:18;;;;;;;10.13;3.60;;;;;;;10.44;100.00;100669.78;4987018;28;20535;-72
2022/05/12 05:18:45;;;;;;;8.57;4.93;;;;;;;10.51;100.00;100670.78;4970605;28;20062;-72
2022/05/12 05:21:11;;;;;;;13.68;4.97;;;;;;;10.45;100.00;100675.94;4987994;28;20030;-73
2022/05/12 05:23:37;;;;;;;10.90;4.65;;;;;;;10.40;100.00;100686.28;4986173;28;20037;-72
2022/05/12 05:26:03;;;;;;;18.90;5.10;;;;;;;10.30;100.00;100689.91;4983378;28;20018;-72
2022/05/12 05:28:29;;;;;;;15.40;5.13;;;;;;;10.26;100.00;100688.53;4982008;28;20034;-72
2022/05/12 05:30:54;;;;;;;9.13;4.40;;;;;;;10.43;100.00;100710.78;4985250;28;21114;-72
2022/05/12 05:33:20;;;;;;;9.68;4.18;;;;;;;10.42;100.00;100705.59;4969241;28;20173;-73
2022/05/12 05:35:46;;;;;;;14.80;4.10;;;;;;;10.35;100.00;100718.78;4986706;28;20036;-73
2022/05/12 05:38:12;;;;;;;11.80;4.93;;;;;;;10.44;100.00;100730.31;4987741;28;20129;-73
2022/05/12 05:40:37;;;;;;;11.50;3.80;;;;;;;10.40;100.00;100729.81;4986224;28;20109;-72
2022/05/12 05:43:03;;;;;;;12.23;4.47;;;;;;;10.48;100.00;100735.16;4986134;28;20496;-72
2022/05/12 05:45:30;;;;;;;12.60;5.00;;;;;;;10.68;100.00;100741.06;4986606;28;20056;-73
2022/05/12 05:47:58;;;;;;;;;;;;;;;11.05;100.00;100758.50;4988016;28;20034;-73
2022/05/12 05:53:23;;;;;;;11.45;3.83;;;;;;;10.66;100.00;100742.22;4987623;28;19932;-72
2022/05/12 05:53:26;;;;;;;8.75;3.47;;;;;;;10.90;100.00;100750.28;4986081;28;20134;-72
2022/05/12 05:55:57;;;;;;;16.08;4.40;;;;;;;10.90;100.00;100750.28;4987414;28;20483;-72
2022/05/12 05:58:24;;;;;;;13.93;4.20;;;;;;;11.02;100.00;100764.16;4984554;28;20034;-72
2022/05/12 06:00:49;;;;;;;11.63;4.35;;;;;;;11.03;100.00;100759.63;4984627;28;20498;-72
2022/05/12 06:03:15;;;;;;;7.90;3.78;;;;;;;10.94;100.00;100772.16;4987313;28;20065;-73
2022/05/12 06:05:41;;;;;;;13.70;5.03;;;;;;;11.10;100.00;100779.38;4985533;28;20038;-72
2022/05/12 06:08:10;;;;;;;19.10;4.65;;;;;;;10.92;100.00;100783.00;4985966;28;20029;-72
2022/05/12 06:10:36;;;;;;;18.35;5.40;;;;;;;11.09;100.00;100791.88;4987184;28;20040;-72
2022/05/12 06:13:02;;;;;;;20.07;4.20;;;;;;;11.15;100.00;100793.91;4987654;28;20391;-72
2022/05/12 06:15:28;;;;;;;14.73;4.53;;;;;;;11.30;100.00;100801.25;4986255;28;20037;-72
2022/05/12 06:17:54;;;;;;;16.05;4.25;;;;;;;11.24;100.00;100802.78;4987152;28;20038;-73
2022/05/12 06:20:21;;;;;;;12.63;3.80;;;;;;;11.11;100.00;100797.06;4985876;28;20034;-73
2022/05/12 06:22:46;;;;;;;10.70;3.53;;;;;;;11.67;100.00;100803.44;4986804;28;20399;-71
2022/05/12 06:25:16;;;;;;;16.52;3.72;;;;;;;12.62;100.00;100795.53;4985967;28;20041;-72
2022/05/12 06:27:41;;;;;;;9.88;3.47;;;;;;;12.58;100.00;100771.94;4985349;28;20100;-72
2022/05/12 06:30:11;;;;;;;14.73;5.15;;;;;;;12.94;100.00;100769.56;4985579;28;20100;-72
2022/05/12 06:32:40;;;;;;;11.65;3.53;;;;;;;14.01;100.00;100764.16;4984880;28;20114;-72
2022/05/12 06:35:08;;;;;;;10.68;2.72;;;;;;;14.91;100.00;100728.09;4987029;28;20097;-72
2022/05/12 06:37:33;;;;;;;11.30;2.55;;;;;;;15.56;100.00;100676.91;4985194;28;20407;-72
2022/05/12 06:39:59;;;;;;;10.25;2.78;;;;;;;15.41;100.00;100637.50;4986654;28;20014;-73
2022/05/12 06:42:24;;;;;;;10.83;3.70;;;;;;;14.75;100.00;100610.94;4986883;28;20080;-73
2022/05/12 06:44:50;;;;;;;5.93;2.57;;;;;;;14.29;100.00;100664.97;4985239;28;20608;-73
2022/05/12 06:47:16;;;;;;;8.83;2.53;;;;;;;13.81;100.00;100694.06;4985854;28;20041;-72
2022/05/12 06:49:42;;;;;;;10.18;2.97;;;;;;;13.15;100.00;100717.16;4981902;28;20491;-73
2022/05/12 06:52:08;;;;;;;8.77;3.78;;;;;;;12.63;100.00;100756.19;4986555;28;20042;-73
2022/05/12 06:54:38;;;;;;;8.75;3.42;;;;;;;12.70;100.00;100812.56;4986709;28;20108;-72
2022/05/12 06:57:04;;;;;;;10.00;2.80;;;;;;;12.15;100.00;100811.59;4985530;28;20480;-72
2022/05/12 06:59:30;;;;;;;8.95;2.67;;;;;;;12.10;100.00;100828.16;4985378;28;20025;-72
2022/05/12 07:01:56;;;;;;;10.18;2.75;;;;;;;12.48;100.00;100863.22;4986121;28;20042;-72
2022/05/12 07:04:24;;;;;;;7.83;3.43;;;;;;;12.71;100.00;100857.91;4985519;28;20034;-72
2022/05/12 07:06:50;;;;;;;10.07;3.65;;;;;;;12.93;100.00;100850.13;4985132;28;20037;-72
2022/05/12 07:09:18;;;;;;;9.93;2.35;;;;;;;13.76;100.00;100870.06;4985257;28;20057;-73
2022/05/12 07:11:44;;;;;;;15.38;2.90;;;;;;;13.46;100.00;100829.72;4984977;28;20036;-72
2022/05/12 07:14:10;;;;;;;7.80;2.70;;;;;;;13.78;100.00;100859.97;4986760;28;20014;-72
2022/05/12 07:16:36;;;;;;;;;;;;;;;13.61;100.00;100824.41;4985787;28;20069;-72
2022/05/12 07:19:01;;;;;;;10.05;3.03;;;;;;;13.45;100.00;100839.59;4986508;28;20272;-73
2022/05/12 07:26:54;;;;;;;10.35;2.75;;;;;;;14.57;100.00;100801.28;4986373;28;20827;-75
2022/05/12 07:29:24;;;;;;;7.00;2.40;;;;;;;14.57;100.00;100787.84;4986303;28;20101;-73
2022/05/12 07:31:50;;;;;;;11.13;2.65;;;;;;;15.39;100.00;100768.66;4984910;28;20053;-76
2022/05/12 07:34:17;;;;;;;8.65;2.40;;;;;;;14.47;100.00;100731.72;4986150;28;20030;-75
2022/05/12 07:36:47;;;;;;;9.70;2.80;;;;;;;14.29;100.00;100807.28;4983799;28;20054;-74
2022/05/12 07:39:12;;;;;;;14.63;2.95;;;;;;;14.85;100.00;100865.94;4964472;28;20519;-75
2022/05/12 07:41:41;;;;;;;9.87;3.00;;;;;;;15.31;100.00;100782.25;4978654;28;20026;-75
2022/05/12 07:44:13;;;;;;;6.90;1.92;;;;;;;15.57;100.00;100725.16;4980778;28;20037;-75
2022/05/12 07:46:39;;;;;;;7.97;2.75;;;;;;;15.39;100.00;100695.22;4979350;28;20121;-73
2022/05/12 07:49:04;;;;;;;9.38;2.42;;;;;;;15.54;100.00;100808.09;4979877;28;20042;-74
2022/05/12 07:51:30;;;;;;;4.97;1.87;;;;;;;15.69;100.00;100736.22;4963321;28;20446;-74
2022/05/12 07:53:55;;;;;;;7.87;2.27;;;;;;;15.78;100.00;100729.69;4978844;28;20165;-73
2022/05/12 07:56:23;;;;;;;8.80;2.10;;;;;;;14.57;100.00;100664.28;4960868;28;20038;-73
2022/05/12 07:58:49;;;;;;;12.45;2.75;;;;;;;14.30;100.00;100757.09;5002113;28;20057;-73
2022/05/12 08:01:15;;;;;;;9.77;2.88;;;;;;;14.43;100.00;100843.22;4988747;28;20488;-74
2022/05/12 08:03:41;;;;;;;11.15;3.33;;;;;;;14.79;100.00;100885.47;4982498;28;20034;-73
2022/05/12 08:06:08;;;;;;;12.57;3.10;;;;;;;14.32;100.00;100863.31;4985168;28;20043;-73
2022/05/12 08:08:34;;;;;;;;;;;;;;;15.17;100.00;100866.50;4966878;28;20034;-73
2022/05/12 08:11:00;;;;;;;7.00;2.33;;;;;;;15.63;100.00;100856.22;4974232;28;19941;-74
2022/05/12 08:13:26;;;;;;;12.95;4.07;;;;;;;16.27;100.00;100818.63;4975528;28;20499;-73
2022/05/12 08:15:53;;;;;;;10.77;2.13;;;;;;;16.40;99.19;100741.38;4980875;28;20188;-73
2022/05/12 08:18:21;;;;;;;3.80;1.70;;;;;;;16.90;94.76;100737.63;4975855;28;20030;-73
2022/05/12 08:20:48;;;;;;;11.88;2.50;;;;;;;17.43;93.60;100753.88;4973870;28;20031;-74
2022/05/12 08:23:14;;;;;;;8.00;2.25;;;;;;;16.57;91.74;100679.06;4974985;28;20038;-73
2022/05/12 08:25:41;;;;;;;7.05;2.28;;;;;;;16.50;89.07;100646.69;4980749;28;20038;-74
2022/05/12 08:28:07;;;;;;;7.10;1.73;;;;;;;16.78;93.32;100767.03;4987415;28;20106;-73
2022/05/12 08:30:33;;;;;;;5.40;1.75;;;;;;;17.42;93.60;100808.88;4988536;28;20045;-74
2022/05/12 08:32:59;;;;;;;7.75;2.55;;;;;;;17.48;91.56;100770.28;4987774;28;20523;-74
2022/05/12 08:35:25;;;;;;;9.63;1.90;;;;;;;16.80;89.61;100697.59;4989113;28;20061;-75
2022/05/12 08:37:51;;;;;;;;;;;;;;;16.27;91.81;100690.13;4988163;28;20026;-74
2022/05/12 08:40:25;;;;;;;;;;;;;;;15.88;93.63;100709.66;4988041;28;19917;-73
2022/05/12 08:42:50;;;;;;;8.60;1.73;;;;;;;16.79;95.37;100818.09;4988437;28;19960;-75
2022/05/12 08:45:18;;;;;;;13.10;1.80;;;;;;;16.78;84.52;100638.44;4986396;28;20054;-75
2022/05/12 08:47:47;;;;;;;8.73;1.42;;;;;;;17.09;78.09;100558.81;4978421;28;20030;-75
2022/05/12 08:50:33;;;;;;;9.65;1.77;;;;;;;16.84;81.58;100661.94;4983244;28;20562;-74
2022/05/12 08:53:01;;;;;;;;;;;;;;;17.23;83.27;100732.28;4970837;28;20046;-73
2022/05/12 08:55:39;;;;;;;5.40;1.65;;;;;;;16.75;81.89;100652.34;4970268;28;19910;-74
2022/05/12 08:58:33;;;;;;;7.68;1.67;;;;;;;18.24;78.97;100739.22;4985478;28;20811;-75
2022/05/12 09:01:13;;;;;;;4.05;1.52;;;;;;;17.76;71.18;100521.66;4986107;28;20042;-74
2022/05/12 09:03:51;;;;;;;5.60;1.83;;;;;;;16.43;76.25;100563.13;4985262;28;20050;-74
2022/05/12 09:06:39;;;;;;;7.50;2.00;;;;;;;17.91;78.22;100756.34;4987870;28;20069;-73
2022/05/12 09:09:25;;;;;;;7.82;2.10;;;;;;;16.71;80.64;100691.53;4972325;28;20905;-75
2022/05/12 09:12:16;;;;;;;3.53;1.50;;;;;;;16.85;82.08;100728.28;4982127;28;20026;-73
2022/05/12 09:14:56;;;;;;;7.10;2.20;;;;;;;15.85;84.24;100683.09;4965291;28;20042;-73
2022/05/12 09:17:27;;;;;;;9.05;1.92;;;;;;;17.07;82.55;100776.69;4980127;28;20452;-74
2022/05/12 09:19:53;;;;;;;5.78;1.90;;;;;;;16.70;82.50;100749.19;4985606;28;20057;-74
2022/05/12 09:22:27;;;;;;;8.63;1.70;;;;;;;16.45;82.34;100730.84;4988063;28;20488;-73
2022/05/12 09:24:52;;;;;;;4.72;1.55;;;;;;;16.31;81.42;100731.81;4986846;28;20034;-74
2022/05/12 09:27:28;;;;;;;6.93;1.80;;;;;;;16.81;81.35;100780.97;4986296;28;20531;-74
2022/05/12 09:29:54;;;;;;;4.82;1.67;;;;;;;17.04;79.49;100763.59;4974977;28;20346;-75
2022/05/12 09:32:24;;;;;;;10.57;2.27;;;;;;;17.08;74.58;100633.50;4985415;28;20428;-76
2022/05/12 09:35:06;;;;;;;10.23;1.88;;;;;;;16.68;80.35;100748.53;4986322;28;20141;-76
2022/05/12 09:37:32;;;;;;;9.77;2.00;;;;;;;17.82;78.20;100795.44;4961394;28;20031;-74
2022/05/12 09:40:14;;;;;;;8.82;2.22;;;;;;;18.49;73.48;100748.28;5001964;28;20145;-74
2022/05/12 09:42:43;;;;;;;4.80;1.83;;;;;;;18.49;70.77;100667.19;4987497;28;20049;-75
2022/05/12 09:45:33;;;;;;;6.60;1.50;;;;;;;17.40;73.12;100624.78;4986677;28;20022;-74
2022/05/12 09:48:19;;;;;;;8.68;2.08;;;;;;;16.79;74.37;100634.75;4986019;28;20088;-74
2022/05/12 09:50:46;;;;;;;10.90;2.55;;;;;;;18.25;73.33;100767.94;4970234;28;20041;-75
2022/05/12 09:53:13;;;;;;;9.02;2.10;;;;;;;18.37;67.69;100600.53;4986086;28;20500;-73
2022/05/12 09:55:55;;;;;;;8.05;3.05;;;;;;;19.30;65.80;100673.72;4986066;28;20097;-75
2022/05/12 09:58:20;;;;;;;5.63;1.45;;;;;;;18.95;64.53;100598.47;4987370;28;20495;-77
2022/05/12 10:01:03;;;;;;;10.93;2.10;;;;;;;17.58;67.19;100535.84;4969909;28;20158;-76
2022/05/12 10:09:22;;;;;;;5.18;1.30;;;;;;;16.61;72.84;100661.44;4971218;28;20041;-76
2022/05/12 10:12:19;;;;;;;6.07;1.60;;;;;;;16.63;77.25;100780.66;4984914;28;20443;-76
2022/05/12 10:14:44;;;;;;;7.50;1.77;;;;;;;17.37;75.78;100836.50;4980431;28;20873;-77
2022/05/12 10:17:51;;;;;;;7.33;1.80;;;;;;;18.76;67.98;100757.13;4967930;28;20033;-77
2022/05/12 10:20:21;;;;;;;7.78;1.77;;;;;;;19.74;63.23;100712.50;4985525;28;20052;-76
2022/05/12 10:23:27;;;;;;;3.70;1.02;;;;;;;20.37;59.81;100650.88;4985517;28;20030;-74
2022/05/12 10:26:31;;;;;;;5.65;1.00;;;;;;;21.23;58.21;100730.19;4986474;28;20045;-76
2022/05/12 10:29:12;;;;;;;8.30;1.20;;;;;;;20.69;57.97;100659.63;4894291;29;20551;-76
2022/05/12 10:31:47;;;;;;;5.20;1.40;;;;;;;21.17;57.00;100695.84;4910158;29;20040;-76
2022/05/12 10:34:37;;;;;;;11.43;1.70;;;;;;;21.13;55.21;100596.94;4954600;28;20054;-76
2022/05/12 10:37:24;;;;;;;4.20;1.00;;;;;;;21.91;54.36;100685.34;4971850;28;20297;-76
2022/05/12 10:40:15;;;;;;;5.70;1.10;;;;;;;20.59;53.38;100459.50;4985256;28;20034;-77
2022/05/12 10:43:29;;;;;;;5.80;1.17;;;;;;;19.46;55.96;100458.44;4978765;28;20088;-77
2022/05/12 10:46:11;;;;;;;3.42;1.25;;;;;;;20.20;57.07;100637.94;4960367;28;20058;-77
2022/05/12 10:48:48;;;;;;;4.22;1.17;;;;;;;19.96;55.96;100558.44;4964627;28;20035;-77
2022/05/12 10:51:26;;;;;;;2.88;0.90;;;;;;;18.96;56.26;100489.22;4981562;28;20050;-76
2022/05/12 10:54:20;;;;;;;7.40;1.55;;;;;;;19.49;60.32;100717.91;4963180;28;20618;-76
2022/05/12 10:57:03;;;;;;;4.05;1.00;;;;;;;20.67;55.41;100650.88;4969415;28;20518;-77
2022/05/12 10:59:37;;;;;;;2.28;0.95;;;;;;;19.26;57.50;100566.13;4983114;28;20053;-77
2022/05/12 11:02:37;;;;;;;3.58;0.90;;;;;;;18.04;59.35;100523.22;4967341;28;20117;-76
2022/05/12 11:05:25;;;;;;;3.78;0.95;;;;;;;17.68;60.38;100536.25;4984878;28;20026;-76
2022/05/12 11:07:58;;;;;;;4.50;1.20;;;;;;;17.96;64.30;100715.22;4985384;28;20038;-77
2022/05/12 11:10:31;;;;;;;3.60;0.93;;;;;;;19.23;61.37;100781.22;4969204;28;20042;-76
2022/05/12 11:13:01;;;;;;;2.70;0.77;;;;;;;19.93;54.58;100588.72;4985187;28;20030;-77
2022/05/12 11:15:32;;;;;;;8.88;1.08;;;;;;;20.92;52.48;100667.00;4986752;28;20034;-77
2022/05/12 11:18:11;;;;;;;4.50;0.90;;;;;;;20.86;51.64;100613.66;4984904;28;20097;-77
2022/05/12 11:20:44;;;;;;;3.17;0.60;;;;;;;20.31;52.12;100535.22;4985429;28;20499;-77
2022/05/12 11:23:28;;;;;;;5.10;1.00;;;;;;;19.48;56.29;100589.00;4985111;28;20033;-77
2022/05/12 11:26:18;;;;;;;2.30;1.23;;;;;;;19.00;56.53;100586.16;4985364;28;20513;-76
2022/05/12 11:31:49;;;;;;;6.72;1.23;;;;;;;19.23;53.75;100469.97;4987759;28;20515;-77
2022/05/12 11:34:20;;;;;;;6.80;1.77;;;;;;;19.98;55.25;100697.22;4988400;28;20649;-76
2022/05/12 11:36:50;;;;;;;4.00;1.00;;;;;;;20.14;51.90;100544.03;4987898;28;20039;-77
2022/05/12 11:39:24;;;;;;;7.05;1.75;;;;;;;19.46;54.72;100596.53;4986054;28;20049;-76
2022/05/12 11:42:09;;;;;;;7.65;1.80;;;;;;;20.97;53.74;100761.28;4963185;28;20100;-77
2022/05/12 11:44:45;;;;;;;6.93;1.10;;;;;;;20.32;51.61;100540.44;4979088;28;20038;-77
2022/05/12 11:47:36;;;;;;;4.22;1.30;;;;;;;21.27;49.90;100601.06;4971508;28;20061;-77
2022/05/12 11:50:24;;;;;;;2.58;0.73;;;;;;;20.96;49.10;100515.41;4982377;28;20373;-77